createdAt,value
2016-05-31T00:00:29.750Z,52.81
2016-05-31T00:01:29.924Z,52.81
2016-05-31T00:02:44.020Z,53.01
2016-05-31T00:03:29.773Z,53.01
2016-05-31T00:04:29.932Z,52.81
2016-05-31T00:05:29.935Z,52.91
2016-05-31T00:06:29.953Z,52.81
2016-05-31T00:07:29.940Z,52.81
2016-05-31T00:08:29.802Z,53.01
2016-05-31T00:09:29.961Z,52.81
2016-05-31T00:10:29.964Z,52.72
2016-05-31T00:11:29.810Z,52.91
2016-05-31T00:12:29.985Z,53.3
2016-05-31T00:13:29.987Z,53.01
2016-05-31T00:14:29.834Z,52.81
2016-05-31T00:15:29.993Z,52.81
2016-05-31T00:16:30.012Z,52.72
2016-05-31T00:17:30.014Z,52.53
2016-05-31T00:18:30.016Z,52.81
2016-05-31T00:19:30.020Z,52.91
2016-05-31T00:20:30.023Z,53.01
2016-05-31T00:21:30.025Z,53.01
2016-05-31T00:22:30.120Z,52.43
2016-05-31T00:23:30.092Z,52.72
2016-05-31T00:24:30.047Z,52.91
2016-05-31T00:25:30.051Z,52.53
2016-05-31T00:26:30.053Z,53.01
2016-05-31T00:27:30.056Z,52.81
2016-05-31T00:28:30.074Z,52.53
2016-05-31T00:29:30.078Z,52.91
2016-05-31T00:30:30.080Z,52.33
2016-05-31T00:31:29.927Z,52.53
2016-05-31T00:32:30.085Z,53.01
2016-05-31T00:33:30.103Z,52.91
2016-05-31T00:34:30.106Z,53.2
2016-05-31T00:35:30.109Z,52.81
2016-05-31T00:36:30.111Z,52.81
2016-05-31T00:37:30.130Z,52.53
2016-05-31T00:38:30.132Z,52.53
2016-05-31T00:39:30.136Z,52.81
2016-05-31T00:40:30.138Z,53.01
2016-05-31T00:41:30.140Z,53.2
2016-05-31T00:42:30.143Z,52.43
2016-05-31T00:43:30.146Z,52.43
2016-05-31T00:44:30.165Z,52.14
2016-05-31T00:45:30.167Z,52.43
2016-05-31T00:46:30.170Z,52.72
2016-05-31T00:47:30.173Z,52.62
2016-05-31T00:48:30.191Z,52.23
2016-05-31T00:49:30.194Z,52.72
2016-05-31T00:50:30.196Z,52.43
2016-05-31T00:51:30.198Z,52.62
2016-05-31T00:52:30.077Z,52.43
2016-05-31T00:53:30.892Z,52.43
2016-05-31T00:54:30.223Z,52.23
2016-05-31T00:55:30.225Z,52.33
2016-05-31T00:56:30.228Z,52.53
2016-05-31T00:57:30.231Z,52.33
2016-05-31T00:58:30.233Z,52.23
2016-05-31T00:59:30.236Z,52.11
2016-05-31T01:00:30.255Z,52.23
2016-05-31T01:01:30.257Z,52.23
2016-05-31T01:02:30.260Z,52.43
2016-05-31T01:03:30.122Z,51.85
2016-05-31T01:04:30.281Z,51.85
2016-05-31T01:05:30.283Z,52.33
2016-05-31T01:06:30.286Z,52.5
2016-05-31T01:07:30.758Z,52.33
2016-05-31T01:08:30.307Z,52.21
2016-05-31T01:09:30.310Z,52.33
2016-05-31T01:10:30.313Z,52.23
2016-05-31T01:11:30.315Z,52.5
2016-05-31T01:12:30.333Z,52.01
2016-05-31T01:13:30.321Z,52.4
2016-05-31T01:14:30.338Z,52.23
2016-05-31T01:15:30.185Z,52.14
2016-05-31T01:16:30.344Z,52.14
2016-05-31T01:17:30.346Z,52.14
2016-05-31T01:18:30.365Z,52.23
2016-05-31T01:19:30.368Z,52.14
2016-05-31T01:20:30.370Z,52.11
2016-05-31T01:21:30.373Z,52.14
2016-05-31T01:22:30.392Z,52.14
2016-05-31T01:23:30.237Z,51.82
2016-05-31T01:24:30.695Z,52.23
2016-05-31T01:25:30.400Z,52.11
2016-05-31T01:26:30.403Z,52.01
2016-05-31T01:27:30.264Z,51.95
2016-05-31T01:28:30.408Z,52.01
2016-05-31T01:29:30.270Z,52.31
2016-05-31T01:30:30.429Z,52.33
2016-05-31T01:31:30.431Z,51.95
2016-05-31T01:32:30.434Z,52.31
2016-05-31T01:33:30.436Z,52.11
2016-05-31T01:34:30.456Z,52.14
2016-05-31T01:35:30.458Z,52.31
2016-05-31T01:36:30.460Z,52.33
2016-05-31T01:37:30.323Z,52.21
2016-05-31T01:38:30.466Z,52.23
2016-05-31T01:39:30.485Z,51.82
2016-05-31T01:40:30.471Z,52.01
2016-05-31T01:41:30.490Z,51.92
2016-05-31T01:42:30.492Z,52.33
2016-05-31T01:43:30.495Z,52.23
2016-05-31T01:44:30.498Z,52.53
2016-05-31T01:45:30.501Z,52.33
2016-05-31T01:46:30.518Z,52.5
2016-05-31T01:47:30.521Z,52.23
2016-05-31T01:48:30.540Z,52.33
2016-05-31T01:49:30.527Z,52.4
2016-05-31T01:50:30.545Z,52.53
2016-05-31T01:51:30.548Z,52.14
2016-05-31T01:52:30.551Z,52.14
2016-05-31T01:53:30.725Z,51.65
2016-05-31T01:54:30.571Z,52.23
2016-05-31T01:55:30.574Z,52.14
2016-05-31T01:56:30.577Z,51.95
2016-05-31T01:57:30.579Z,51.65
2016-05-31T01:58:30.426Z,51.37
2016-05-31T01:59:30.600Z,51.46
2016-05-31T02:00:30.603Z,51.56
2016-05-31T02:01:30.606Z,51.46
2016-05-31T02:02:30.609Z,51.85
2016-05-31T02:03:30.611Z,51.37
2016-05-31T02:04:30.614Z,51.95
2016-05-31T02:05:30.616Z,51.85
2016-05-31T02:06:30.651Z,51.46
2016-05-31T02:07:30.575Z,51.85
2016-05-31T02:08:31.483Z,51.65
2016-05-31T02:09:30.643Z,51.56
2016-05-31T02:10:30.646Z,51.85
2016-05-31T02:11:30.664Z,51.95
2016-05-31T02:12:30.667Z,51.95
2016-05-31T02:13:30.669Z,51.95
2016-05-31T02:14:30.672Z,51.75
2016-05-31T02:15:30.675Z,51.85
2016-05-31T02:16:30.693Z,51.85
2016-05-31T02:17:30.696Z,51.75
2016-05-31T02:18:30.699Z,52.14
2016-05-31T02:19:30.718Z,51.56
2016-05-31T02:20:30.704Z,52.04
2016-05-31T02:21:30.707Z,51.65
2016-05-31T02:22:30.553Z,51.85
2016-05-31T02:23:31.196Z,52.04
2016-05-31T02:24:30.731Z,51.75
2016-05-31T02:25:30.734Z,52.04
2016-05-31T02:26:30.737Z,51.46
2016-05-31T02:27:30.739Z,51.27
2016-05-31T02:28:30.742Z,52.04
2016-05-31T02:29:30.760Z,51.75
2016-05-31T02:30:30.762Z,51.56
2016-05-31T02:31:30.765Z,51.75
2016-05-31T02:32:30.767Z,51.27
2016-05-31T02:33:30.770Z,51.75
2016-05-31T02:34:30.773Z,51.56
2016-05-31T02:35:30.792Z,51.75
2016-05-31T02:36:30.638Z,52.23
2016-05-31T02:37:30.641Z,51.75
2016-05-31T02:38:30.846Z,51.27
2016-05-31T02:39:30.646Z,51.27
2016-05-31T02:40:30.805Z,50.98
2016-05-31T02:41:30.666Z,51.17
2016-05-31T02:42:30.825Z,51.17
2016-05-31T02:43:30.828Z,51.37
2016-05-31T02:44:30.831Z,50.89
2016-05-31T02:45:30.833Z,51.07
2016-05-31T02:46:30.680Z,50.89
2016-05-31T02:47:30.838Z,51.07
2016-05-31T02:48:30.841Z,51.34
2016-05-31T02:49:30.704Z,51.27
2016-05-31T02:50:30.863Z,51.05
2016-05-31T02:51:30.866Z,51.53
2016-05-31T02:52:30.868Z,51.56
2016-05-31T02:53:31.121Z,51.15
2016-05-31T02:54:30.889Z,51.25
2016-05-31T02:55:30.907Z,51.37
2016-05-31T02:56:30.895Z,51.56
2016-05-31T02:57:30.898Z,51.65
2016-05-31T02:58:30.900Z,51.27
2016-05-31T02:59:30.918Z,51.07
2016-05-31T03:00:30.748Z,51.27
2016-05-31T03:01:30.924Z,51.34
2016-05-31T03:02:30.926Z,51.27
2016-05-31T03:03:30.929Z,51.37
2016-05-31T03:04:30.931Z,51.46
2016-05-31T03:05:30.934Z,51.25
2016-05-31T03:06:30.937Z,51.34
2016-05-31T03:07:30.955Z,51.44
2016-05-31T03:08:31.068Z,51.25
2016-05-31T03:09:30.961Z,51.25
2016-05-31T03:10:30.964Z,51.25
2016-05-31T03:11:30.966Z,50.96
2016-05-31T03:12:30.968Z,51.34
2016-05-31T03:13:30.831Z,51.34
2016-05-31T03:14:30.990Z,51.15
2016-05-31T03:15:30.852Z,51.25
2016-05-31T03:16:30.996Z,51.25
2016-05-31T03:17:30.998Z,51.53
2016-05-31T03:18:31.001Z,51.44
2016-05-31T03:19:31.004Z,51.15
2016-05-31T03:20:31.021Z,51.25
2016-05-31T03:21:31.024Z,51.15
2016-05-31T03:22:31.668Z,51.15
2016-05-31T03:23:31.030Z,51.25
2016-05-31T03:24:31.032Z,51.25
2016-05-31T03:25:30.941Z,51.63
2016-05-31T03:26:31.054Z,51.25
2016-05-31T03:27:31.056Z,51.25
2016-05-31T03:28:31.058Z,51.34
2016-05-31T03:29:31.077Z,51.15
2016-05-31T03:30:31.079Z,51.25
2016-05-31T03:31:31.067Z,51.34
2016-05-31T03:32:30.929Z,51.15
2016-05-31T03:33:31.103Z,51.15
2016-05-31T03:34:30.934Z,51.25
2016-05-31T03:35:31.109Z,51.25
2016-05-31T03:36:31.096Z,51.44
2016-05-31T03:37:31.114Z,51.05
2016-05-31T03:38:31.180Z,51.34
2016-05-31T03:39:31.120Z,51.25
2016-05-31T03:40:31.122Z,51.34
2016-05-31T03:41:31.125Z,51.25
2016-05-31T03:42:31.127Z,51.34
2016-05-31T03:43:31.146Z,51.25
2016-05-31T03:44:31.149Z,51.34
2016-05-31T03:45:31.151Z,51.34
2016-05-31T03:46:31.170Z,51.05
2016-05-31T03:47:31.172Z,51.34
2016-05-31T03:48:31.174Z,51.05
2016-05-31T03:49:31.178Z,51.53
2016-05-31T03:50:31.180Z,51.44
2016-05-31T03:51:31.198Z,51.15
2016-05-31T03:52:31.858Z,51.25
2016-05-31T03:53:31.204Z,51.34
2016-05-31T03:54:31.207Z,51.34
2016-05-31T03:55:31.210Z,51.53
2016-05-31T03:56:31.212Z,51.53
2016-05-31T03:57:31.059Z,51.53
2016-05-31T03:58:31.234Z,51.53
2016-05-31T03:59:31.236Z,51.34
2016-05-31T04:00:31.239Z,51.25
2016-05-31T04:01:31.241Z,51.34
2016-05-31T04:02:31.260Z,51.05
2016-05-31T04:03:31.262Z,51.34
2016-05-31T04:04:31.108Z,51.34
2016-05-31T04:05:31.268Z,51.25
2016-05-31T04:06:31.114Z,51.05
2016-05-31T04:07:31.288Z,51.15
2016-05-31T04:08:31.135Z,50.57
2016-05-31T04:09:31.295Z,50.57
2016-05-31T04:10:31.297Z,51.05
2016-05-31T04:11:31.299Z,50.76
2016-05-31T04:12:31.318Z,50.86
2016-05-31T04:13:31.336Z,51.05
2016-05-31T04:14:31.322Z,50.96
2016-05-31T04:15:31.325Z,50.96
2016-05-31T04:16:31.172Z,50.96
2016-05-31T04:17:31.347Z,50.96
2016-05-31T04:18:31.177Z,50.86
2016-05-31T04:19:31.368Z,51.15
2016-05-31T04:20:31.355Z,51.15
2016-05-31T04:21:31.357Z,51.15
2016-05-31T04:22:31.548Z,50.96
2016-05-31T04:23:31.441Z,50.96
2016-05-31T04:24:31.382Z,50.86
2016-05-31T04:25:31.274Z,50.47
2016-05-31T04:26:31.387Z,51.15
2016-05-31T04:27:31.405Z,50.67
2016-05-31T04:28:31.407Z,50.47
2016-05-31T04:29:31.409Z,50.38
2016-05-31T04:30:31.459Z,50.96
2016-05-31T04:31:31.416Z,50.67
2016-05-31T04:32:31.278Z,50.47
2016-05-31T04:33:31.420Z,50.76
2016-05-31T04:34:31.284Z,50.47
2016-05-31T04:35:31.489Z,51.15
2016-05-31T04:36:31.444Z,51.15
2016-05-31T04:37:31.307Z,51.25
2016-05-31T04:38:31.309Z,50.57
2016-05-31T04:39:31.469Z,50.76
2016-05-31T04:40:31.471Z,50.96
2016-05-31T04:41:31.475Z,50.47
2016-05-31T04:42:31.477Z,51.05
2016-05-31T04:43:31.494Z,51.15
2016-05-31T04:44:31.497Z,50.67
2016-05-31T04:45:31.500Z,50.5
2016-05-31T04:46:31.503Z,50.79
2016-05-31T04:47:31.505Z,50.69
2016-05-31T04:48:31.524Z,50.59
2016-05-31T04:49:31.527Z,50.31
2016-05-31T04:50:31.529Z,50.11
2016-05-31T04:51:31.532Z,50.4
2016-05-31T04:52:31.535Z,49.82
2016-05-31T04:53:31.975Z,49.63
2016-05-31T04:54:31.384Z,49.44
2016-05-31T04:55:31.558Z,49.17
2016-05-31T04:56:31.560Z,49.07
2016-05-31T04:57:31.579Z,49.07
2016-05-31T04:58:31.676Z,48.97
2016-05-31T04:59:31.584Z,49.27
2016-05-31T05:00:31.588Z,48.88
2016-05-31T05:01:31.590Z,49.07
2016-05-31T05:02:31.451Z,48.3
2016-05-31T05:03:31.627Z,48.39
2016-05-31T05:04:31.629Z,48.42
2016-05-31T05:05:31.632Z,48.42
2016-05-31T05:06:31.634Z,48.32
2016-05-31T05:07:31.654Z,48.13
2016-05-31T05:08:31.656Z,48.23
2016-05-31T05:09:31.658Z,48.32
2016-05-31T05:10:31.661Z,47.74
2016-05-31T05:11:31.679Z,47.94
2016-05-31T05:12:31.683Z,47.16
2016-05-31T05:13:31.700Z,46.9
2016-05-31T05:14:31.703Z,46.88
2016-05-31T05:15:31.722Z,47.28
2016-05-31T05:16:31.724Z,46.8
2016-05-31T05:17:31.727Z,46.7
2016-05-31T05:18:31.729Z,46.8
2016-05-31T05:19:31.748Z,46.9
2016-05-31T05:20:31.750Z,47.09
2016-05-31T05:21:31.753Z,46.7
2016-05-31T05:22:31.771Z,46.32
2016-05-31T05:23:31.774Z,46.42
2016-05-31T05:24:31.793Z,46.34
2016-05-31T05:25:31.795Z,46.34
2016-05-31T05:26:31.860Z,46.34
2016-05-31T05:27:31.816Z,46.34
2016-05-31T05:28:31.819Z,46.34
2016-05-31T05:29:31.837Z,46.61
2016-05-31T05:30:31.840Z,46.15
2016-05-31T05:31:31.905Z,46.22
2016-05-31T05:32:31.861Z,46.53
2016-05-31T05:33:31.864Z,46.44
2016-05-31T05:34:31.882Z,46.25
2016-05-31T05:35:31.885Z,46.34
2016-05-31T05:36:31.887Z,47.02
2016-05-31T05:37:32.234Z,46.34
2016-05-31T05:38:31.939Z,46.34
2016-05-31T05:39:31.926Z,46.44
2016-05-31T05:40:31.929Z,46.34
2016-05-31T05:41:31.947Z,46.26
2016-05-31T05:42:31.967Z,46.26
2016-05-31T05:43:31.969Z,46.46
2016-05-31T05:44:31.972Z,46.94
2016-05-31T05:45:31.989Z,46.94
2016-05-31T05:46:31.992Z,46.84
2016-05-31T05:47:31.995Z,46.26
2016-05-31T05:48:32.013Z,46.36
2016-05-31T05:49:32.016Z,46.56
2016-05-31T05:50:32.034Z,46.17
2016-05-31T05:51:32.038Z,45.98
2016-05-31T05:52:32.774Z,45.78
2016-05-31T05:53:32.651Z,45.59
2016-05-31T05:54:32.061Z,45.49
2016-05-31T05:55:32.079Z,45.13
2016-05-31T05:56:32.082Z,45.4
2016-05-31T05:57:32.108Z,45.3
2016-05-31T05:58:32.154Z,45.1
2016-05-31T05:59:32.027Z,44.81
2016-05-31T06:00:32.212Z,45.1
2016-05-31T06:01:32.257Z,44.91
2016-05-31T06:02:32.281Z,44.93
2016-05-31T06:03:32.308Z,44.54
2016-05-31T06:04:32.320Z,44.74
2016-05-31T06:05:32.333Z,44.54
2016-05-31T06:06:32.361Z,44.16
2016-05-31T06:07:32.387Z,44.45
2016-05-31T06:08:33.002Z,44.26
2016-05-31T06:09:32.400Z,44.26
2016-05-31T06:10:32.452Z,43.96
2016-05-31T06:11:32.427Z,43.87
2016-05-31T06:12:32.448Z,44.45
2016-05-31T06:13:32.451Z,44.26
2016-05-31T06:14:32.471Z,44.16
2016-05-31T06:15:32.507Z,44.16
2016-05-31T06:16:32.494Z,44.84
2016-05-31T06:17:32.498Z,44.93
2016-05-31T06:18:32.517Z,45.01
2016-05-31T06:19:32.520Z,45.01
2016-05-31T06:20:32.538Z,44.84
2016-05-31T06:21:32.541Z,44.45
2016-05-31T06:22:32.545Z,44.06
2016-05-31T06:23:32.563Z,43.96
2016-05-31T06:24:32.581Z,44.26
2016-05-31T06:25:32.585Z,44.16
2016-05-31T06:26:32.587Z,44.06
2016-05-31T06:27:32.605Z,43.87
2016-05-31T06:28:32.607Z,44.06
2016-05-31T06:29:32.626Z,44.45
2016-05-31T06:30:32.629Z,44.45
2016-05-31T06:31:32.662Z,44.64
2016-05-31T06:32:32.649Z,44.35
2016-05-31T06:33:32.651Z,44.16
2016-05-31T06:34:32.655Z,45.22
2016-05-31T06:35:32.689Z,44.84
2016-05-31T06:36:32.676Z,45.13
2016-05-31T06:37:32.694Z,45.51
2016-05-31T06:38:33.182Z,45.49
2016-05-31T06:39:32.715Z,46.08
2016-05-31T06:40:32.733Z,45.59
2016-05-31T06:41:32.736Z,45.4
2016-05-31T06:42:32.739Z,44.91
2016-05-31T06:43:32.742Z,45.59
2016-05-31T06:44:32.760Z,46.46
2016-05-31T06:45:32.763Z,46.15
2016-05-31T06:46:32.780Z,45.66
2016-05-31T06:47:32.784Z,46.15
2016-05-31T06:48:32.786Z,46.15
2016-05-31T06:49:32.805Z,45.95
2016-05-31T06:50:32.652Z,46.25
2016-05-31T06:51:32.825Z,46.15
2016-05-31T06:52:33.110Z,46.05
2016-05-31T06:53:32.830Z,46.05
2016-05-31T06:54:32.833Z,45.66
2016-05-31T06:55:32.868Z,46.44
2016-05-31T06:56:32.855Z,46.53
2016-05-31T06:57:32.873Z,46.44
2016-05-31T06:58:32.876Z,46.44
2016-05-31T06:59:32.879Z,46.63
2016-05-31T07:00:32.897Z,46.05
2016-05-31T07:01:32.915Z,46.25
2016-05-31T07:02:32.902Z,46.61
2016-05-31T07:03:32.764Z,45.57
2016-05-31T07:04:32.923Z,45.57
2016-05-31T07:05:32.926Z,45.1
2016-05-31T07:06:32.928Z,44.72
2016-05-31T07:07:33.337Z,44.33
2016-05-31T07:08:32.809Z,44.53
2016-05-31T07:09:32.968Z,44.23
2016-05-31T07:10:32.986Z,44.81
2016-05-31T07:11:32.973Z,45.2
2016-05-31T07:12:32.991Z,45.47
2016-05-31T07:13:33.010Z,45.47
2016-05-31T07:14:32.997Z,45.47
2016-05-31T07:15:33.015Z,45.83
2016-05-31T07:16:33.033Z,45.95
2016-05-31T07:17:33.036Z,45.66
2016-05-31T07:18:33.038Z,45.64
2016-05-31T07:19:33.058Z,46.05
2016-05-31T07:20:33.060Z,45.95
2016-05-31T07:21:33.063Z,46.03
2016-05-31T07:22:33.221Z,45.47
2016-05-31T07:23:32.928Z,45.28
2016-05-31T07:24:33.102Z,44.33
2016-05-31T07:25:33.088Z,44.04
2016-05-31T07:26:33.107Z,43.38
2016-05-31T07:27:33.110Z,43.58
2016-05-31T07:28:33.129Z,43.19
2016-05-31T07:29:33.131Z,43.68
2016-05-31T07:30:32.977Z,44.04
2016-05-31T07:31:33.152Z,44.91
2016-05-31T07:32:33.155Z,44.72
2016-05-31T07:33:33.173Z,45.18
2016-05-31T07:34:33.176Z,45.57
2016-05-31T07:35:33.193Z,45.57
2016-05-31T07:36:33.040Z,45.66
2016-05-31T07:37:34.199Z,45.93
2016-05-31T07:38:33.234Z,45.74
2016-05-31T07:39:33.204Z,45.08
2016-05-31T07:40:33.239Z,44.98
2016-05-31T07:41:33.242Z,45.08
2016-05-31T07:42:33.244Z,45.18
2016-05-31T07:43:33.247Z,44.79
2016-05-31T07:44:33.264Z,45.08
2016-05-31T07:45:33.268Z,45.18
2016-05-31T07:46:33.287Z,44.79
2016-05-31T07:47:33.289Z,45.08
2016-05-31T07:48:33.291Z,45.18
2016-05-31T07:49:33.310Z,45.28
2016-05-31T07:50:33.313Z,45.18
2016-05-31T07:51:33.316Z,44.98
2016-05-31T07:52:33.161Z,44.7
2016-05-31T07:53:33.336Z,44.62
2016-05-31T07:54:33.338Z,44.62
2016-05-31T07:55:33.358Z,44.79
2016-05-31T07:56:33.360Z,44.98
2016-05-31T07:57:33.363Z,45.18
2016-05-31T07:58:33.365Z,45.08
2016-05-31T07:59:33.383Z,44.98
2016-05-31T08:00:33.386Z,44.98
2016-05-31T08:01:33.405Z,44.79
2016-05-31T08:02:33.407Z,45.08
2016-05-31T08:03:33.409Z,45.08
2016-05-31T08:04:33.429Z,44.89
2016-05-31T08:05:33.432Z,45.18
2016-05-31T08:06:33.434Z,45.28
2016-05-31T08:07:33.436Z,44.98
2016-05-31T08:08:33.454Z,45.37
2016-05-31T08:09:33.456Z,45.18
2016-05-31T08:10:33.460Z,45.35
2016-05-31T08:11:33.463Z,44.98
2016-05-31T08:12:33.481Z,45.16
2016-05-31T08:13:33.483Z,45.45
2016-05-31T08:14:33.487Z,45.45
2016-05-31T08:15:33.505Z,45.37
2016-05-31T08:16:33.508Z,45.45
2016-05-31T08:17:33.525Z,45.54
2016-05-31T08:18:33.528Z,45.54
2016-05-31T08:19:33.530Z,45.54
2016-05-31T08:20:33.533Z,45.45
2016-05-31T08:21:33.552Z,45.93
2016-05-31T08:22:33.570Z,45.83
2016-05-31T08:23:33.572Z,45.64
2016-05-31T08:24:33.575Z,45.64
2016-05-31T08:25:33.578Z,45.64
2016-05-31T08:26:33.581Z,45.64
2016-05-31T08:27:33.599Z,45.64
2016-05-31T08:28:33.649Z,45.45
2016-05-31T08:29:33.604Z,45.54
2016-05-31T08:30:33.608Z,45.45
2016-05-31T08:31:33.626Z,45.45
2016-05-31T08:32:33.691Z,45.64
2016-05-31T08:33:33.631Z,45.54
2016-05-31T08:34:33.649Z,45.64
2016-05-31T08:35:33.652Z,45.74
2016-05-31T08:36:33.670Z,45.74
2016-05-31T08:37:33.674Z,45.64
2016-05-31T08:38:34.832Z,45.74
2016-05-31T08:39:33.679Z,45.54
2016-05-31T08:40:33.697Z,45.54
2016-05-31T08:41:33.700Z,45.64
2016-05-31T08:42:33.703Z,45.74
2016-05-31T08:43:33.720Z,45.35
2016-05-31T08:44:33.708Z,45.35
2016-05-31T08:45:33.726Z,45.35
2016-05-31T08:46:33.728Z,45.64
2016-05-31T08:47:33.747Z,45.64
2016-05-31T08:48:33.750Z,45.93
2016-05-31T08:49:33.597Z,45.74
2016-05-31T08:50:33.755Z,45.35
2016-05-31T08:51:33.789Z,45.25
2016-05-31T08:52:33.791Z,45.35
2016-05-31T08:53:34.653Z,45.25
2016-05-31T08:54:33.797Z,45.93
2016-05-31T08:55:33.800Z,45.74
2016-05-31T08:56:33.802Z,45.64
2016-05-31T08:57:33.805Z,45.54
2016-05-31T08:58:33.824Z,45.64
2016-05-31T08:59:33.826Z,45.54
2016-05-31T09:00:33.829Z,45.54
2016-05-31T09:01:33.832Z,45.64
2016-05-31T09:02:33.849Z,45.54
2016-05-31T09:03:33.852Z,45.64
2016-05-31T09:04:33.855Z,45.45
2016-05-31T09:05:33.857Z,45.64
2016-05-31T09:06:33.876Z,45.64
2016-05-31T09:07:33.895Z,45.64
2016-05-31T09:08:33.898Z,45.62
2016-05-31T09:09:33.900Z,45.74
2016-05-31T09:10:33.903Z,45.54
2016-05-31T09:11:33.905Z,45.64
2016-05-31T09:12:33.923Z,45.45
2016-05-31T09:13:33.926Z,45.54
2016-05-31T09:14:33.929Z,45.45
2016-05-31T09:15:33.931Z,45.42
2016-05-31T09:16:33.934Z,45.52
2016-05-31T09:17:33.952Z,45.45
2016-05-31T09:18:33.956Z,45.42
2016-05-31T09:19:33.958Z,45.42
2016-05-31T09:20:33.961Z,45.62
2016-05-31T09:21:33.978Z,45.83
2016-05-31T09:22:33.982Z,45.81
2016-05-31T09:23:34.187Z,45.45
2016-05-31T09:24:33.987Z,45.54
2016-05-31T09:25:33.849Z,45.45
2016-05-31T09:26:34.008Z,45.45
2016-05-31T09:27:34.010Z,45.45
2016-05-31T09:28:34.014Z,45.06
2016-05-31T09:29:34.079Z,45.54
2016-05-31T09:30:34.035Z,45.35
2016-05-31T09:31:34.037Z,45.25
2016-05-31T09:32:34.103Z,44.96
2016-05-31T09:33:34.057Z,45.16
2016-05-31T09:34:34.061Z,45.45
2016-05-31T09:35:34.079Z,44.96
2016-05-31T09:36:33.925Z,44.96
2016-05-31T09:37:33.991Z,45.06
2016-05-31T09:38:33.947Z,45.06
2016-05-31T09:39:34.106Z,44.96
2016-05-31T09:40:34.109Z,44.87
2016-05-31T09:41:34.111Z,45.35
2016-05-31T09:42:34.129Z,45.06
2016-05-31T09:43:34.131Z,44.77
2016-05-31T09:44:34.150Z,44.77
2016-05-31T09:45:34.153Z,45.06
2016-05-31T09:46:34.156Z,45.35
2016-05-31T09:47:34.158Z,44.87
2016-05-31T09:48:34.176Z,45.35
2016-05-31T09:49:34.179Z,44.96
2016-05-31T09:50:34.182Z,45.06
2016-05-31T09:51:34.184Z,45.23
2016-05-31T09:52:34.062Z,45.04
2016-05-31T09:53:34.049Z,45.35
2016-05-31T09:54:34.208Z,45.42
2016-05-31T09:55:34.211Z,45.45
2016-05-31T09:56:34.214Z,45.16
2016-05-31T09:57:34.216Z,45.23
2016-05-31T09:58:34.235Z,44.94
2016-05-31T09:59:34.252Z,45.16
2016-05-31T10:00:34.256Z,45.14
2016-05-31T10:01:34.258Z,45.25
2016-05-31T10:02:34.261Z,45.35
2016-05-31T10:03:34.263Z,45.42
2016-05-31T10:04:34.282Z,45.35
2016-05-31T10:05:34.284Z,45.06
2016-05-31T10:06:34.288Z,45.14
2016-05-31T10:07:34.384Z,45.14
2016-05-31T10:08:34.309Z,45.33
2016-05-31T10:09:34.326Z,45.33
2016-05-31T10:10:34.315Z,45.62
2016-05-31T10:11:34.317Z,45.42
2016-05-31T10:12:34.335Z,45.33
2016-05-31T10:13:34.337Z,45.42
2016-05-31T10:14:34.340Z,45.42
2016-05-31T10:15:34.358Z,45.33
2016-05-31T10:16:34.362Z,45.23
2016-05-31T10:17:34.364Z,45.04
2016-05-31T10:18:34.382Z,45.42
2016-05-31T10:19:34.384Z,45.42
2016-05-31T10:20:34.404Z,45.23
2016-05-31T10:21:34.390Z,45.62
2016-05-31T10:22:34.455Z,45.52
2016-05-31T10:23:34.553Z,45.42
2016-05-31T10:24:34.414Z,45.42
2016-05-31T10:25:34.416Z,45.52
2016-05-31T10:26:34.419Z,45.42
2016-05-31T10:27:34.438Z,45.62
2016-05-31T10:28:34.441Z,45.23
2016-05-31T10:29:34.490Z,45.42
2016-05-31T10:30:34.493Z,45.42
2016-05-31T10:31:34.292Z,45.23
2016-05-31T10:32:34.513Z,45.23
2016-05-31T10:33:34.469Z,45.23
2016-05-31T10:34:34.472Z,45.14
2016-05-31T10:35:34.506Z,45.52
2016-05-31T10:36:34.493Z,45.52
2016-05-31T10:37:34.590Z,45.14
2016-05-31T10:38:34.499Z,45.14
2016-05-31T10:39:34.517Z,45.23
2016-05-31T10:40:34.520Z,45.42
2016-05-31T10:41:34.523Z,45.23
2016-05-31T10:42:34.525Z,45.42
2016-05-31T10:43:34.543Z,44.94
2016-05-31T10:44:34.546Z,45.42
2016-05-31T10:45:34.548Z,45.23
2016-05-31T10:46:34.567Z,45.14
2016-05-31T10:47:34.570Z,45.33
2016-05-31T10:48:34.572Z,45.14
2016-05-31T10:49:34.576Z,44.84
2016-05-31T10:50:34.593Z,44.75
2016-05-31T10:51:34.596Z,44.75
2016-05-31T10:52:34.598Z,45.23
2016-05-31T10:53:34.741Z,45.04
2016-05-31T10:54:34.604Z,45.14
2016-05-31T10:55:34.622Z,45.04
2016-05-31T10:56:34.625Z,45.14
2016-05-31T10:57:34.644Z,45.14
2016-05-31T10:58:34.630Z,44.94
2016-05-31T10:59:34.649Z,45.14
2016-05-31T11:00:34.652Z,45.14
2016-05-31T11:01:34.497Z,45.23
2016-05-31T11:02:34.672Z,44.75
2016-05-31T11:03:34.675Z,45.33
2016-05-31T11:04:34.693Z,44.75
2016-05-31T11:05:34.680Z,44.75
2016-05-31T11:06:34.699Z,45.23
2016-05-31T11:07:34.701Z,44.96
2016-05-31T11:08:34.549Z,45.14
2016-05-31T11:09:34.723Z,45.14
2016-05-31T11:10:34.725Z,45.14
2016-05-31T11:11:34.728Z,45.14
2016-05-31T11:12:34.731Z,45.14
2016-05-31T11:13:34.733Z,44.75
2016-05-31T11:14:34.768Z,41.75
2016-05-31T11:15:34.754Z,42.14
2016-05-31T11:16:34.757Z,41.63
2016-05-31T11:17:34.760Z,42.7
2016-05-31T11:18:34.762Z,43.06
2016-05-31T11:19:34.781Z,41.05
2016-05-31T11:20:34.783Z,42.21
2016-05-31T11:21:34.786Z,41.05
2016-05-31T11:22:34.789Z,41.25
2016-05-31T11:23:35.167Z,41.15
2016-05-31T11:24:34.825Z,42.6
2016-05-31T11:25:34.797Z,42.29
2016-05-31T11:26:34.800Z,42.89
2016-05-31T11:27:34.802Z,41.25
2016-05-31T11:28:34.805Z,41.54
2016-05-31T11:29:34.823Z,41.05
2016-05-31T11:30:34.810Z,41.33
2016-05-31T11:31:34.672Z,41.23
2016-05-31T11:32:34.971Z,41.23
2016-05-31T11:33:34.678Z,40.94
2016-05-31T11:34:35.180Z,41.42
2016-05-31T11:35:34.839Z,41.03
2016-05-31T11:36:34.935Z,41.03
2016-05-31T11:37:34.735Z,41.23
2016-05-31T11:38:34.690Z,41.33
2016-05-31T11:39:34.849Z,40.84
2016-05-31T11:40:34.697Z,40.45
2016-05-31T11:41:34.855Z,41.03
2016-05-31T11:42:34.857Z,40.94
2016-05-31T11:43:34.846Z,41.03
2016-05-31T11:44:34.848Z,41.61
2016-05-31T11:45:34.866Z,41.03
2016-05-31T11:46:34.869Z,41.71
2016-05-31T11:47:34.871Z,40.75
2016-05-31T11:48:34.873Z,41.81
2016-05-31T11:49:34.876Z,41.71
2016-05-31T11:50:34.864Z,41.03
2016-05-31T11:51:34.898Z,41.35
2016-05-31T11:52:35.557Z,41.54
2016-05-31T11:53:35.559Z,40.96
2016-05-31T11:54:34.890Z,41.63
2016-05-31T11:55:34.892Z,41.15
2016-05-31T11:56:34.895Z,41.05
2016-05-31T11:57:34.898Z,41.35
2016-05-31T11:58:34.917Z,40.86
2016-05-31T11:59:34.903Z,41.44
2016-05-31T12:00:34.750Z,41.03
2016-05-31T12:01:34.908Z,41.33
2016-05-31T12:02:34.755Z,41.35
2016-05-31T12:03:34.931Z,41.13
2016-05-31T12:04:34.933Z,39.9
2016-05-31T12:05:34.920Z,41.23
2016-05-31T12:06:34.922Z,41.25
2016-05-31T12:07:35.721Z,41.81
2016-05-31T12:08:34.788Z,41.25
2016-05-31T12:09:34.947Z,41.25
2016-05-31T12:10:34.949Z,41.63
2016-05-31T12:11:34.952Z,41.35
2016-05-31T12:12:34.954Z,40.96
2016-05-31T12:13:34.957Z,40.09
2016-05-31T12:14:34.991Z,40.11
2016-05-31T12:15:34.962Z,40.77
2016-05-31T12:16:34.965Z,41.15
2016-05-31T12:17:34.968Z,40.96
2016-05-31T12:18:34.986Z,41.05
2016-05-31T12:19:34.973Z,40.94
2016-05-31T12:20:34.992Z,41.42
2016-05-31T12:21:34.995Z,41.42
2016-05-31T12:22:35.154Z,41.03
2016-05-31T12:23:35.484Z,41.23
2016-05-31T12:24:35.002Z,41.33
2016-05-31T12:25:34.833Z,41.03
2016-05-31T12:26:35.008Z,41.23
2016-05-31T12:27:35.011Z,41.42
2016-05-31T12:28:35.013Z,41.23
2016-05-31T12:29:35.000Z,39.78
2016-05-31T12:30:35.019Z,40.94
2016-05-31T12:31:35.021Z,40.36
2016-05-31T12:32:35.914Z,39.8
2016-05-31T12:33:35.010Z,41.42
2016-05-31T12:34:35.029Z,41.13
2016-05-31T12:35:35.079Z,41.13
2016-05-31T12:36:35.035Z,41.13
2016-05-31T12:37:35.163Z,41.42
2016-05-31T12:38:35.649Z,41.52
2016-05-31T12:39:35.043Z,42.48
2016-05-31T12:40:35.045Z,41.63
2016-05-31T12:41:35.048Z,41.25
2016-05-31T12:42:35.051Z,40.96
2016-05-31T12:43:34.913Z,41.33
2016-05-31T12:44:35.056Z,41.33
2016-05-31T12:45:35.059Z,41.33
2016-05-31T12:46:35.061Z,41.23
2016-05-31T12:47:35.064Z,41.2
2016-05-31T12:48:35.068Z,41.13
2016-05-31T12:49:34.913Z,41.2
2016-05-31T12:50:35.088Z,41.23
2016-05-31T12:51:35.075Z,40.36
2016-05-31T12:52:35.843Z,41.23
2016-05-31T12:53:35.486Z,40.75